sensor_id;sensor_type;location;lat;lon;timestamp;temperature;humidity
59572;DHT22;70118;45.638;11.714;2023-07-31T00:00:44;29.00;80.70
59572;DHT22;70118;45.638;11.714;2023-07-31T00:03:12;28.90;80.90
59572;DHT22;70118;45.638;11.714;2023-07-31T00:05:37;28.90;80.70
59572;DHT22;70118;45.638;11.714;2023-07-31T00:08:03;28.90;80.80
59572;DHT22;70118;45.638;11.714;2023-07-31T00:10:29;29.00;80.80
59572;DHT22;70118;45.638;11.714;2023-07-31T00:12:55;28.90;80.90
59572;DHT22;70118;45.638;11.714;2023-07-31T00:15:21;28.90;80.80
59572;DHT22;70118;45.638;11.714;2023-07-31T00:17:47;28.90;80.80
59572;DHT22;70118;45.638;11.714;2023-07-31T00:20:13;28.90;80.80
59572;DHT22;70118;45.638;11.714;2023-07-31T00:22:39;29.00;80.90
59572;DHT22;70118;45.638;11.714;2023-07-31T00:25:05;28.90;80.90
59572;DHT22;70118;45.638;11.714;2023-07-31T00:27:32;28.90;80.90
59572;DHT22;70118;45.638;11.714;2023-07-31T00:29:58;28.90;80.90
59572;DHT22;70118;45.638;11.714;2023-07-31T00:32:24;28.90;80.80
59572;DHT22;70118;45.638;11.714;2023-07-31T00:34:50;28.90;80.80
59572;DHT22;70118;45.638;11.714;2023-07-31T00:37:15;28.90;80.90
59572;DHT22;70118;45.638;11.714;2023-07-31T00:39:41;29.00;80.80
59572;DHT22;70118;45.638;11.714;2023-07-31T00:42:07;28.90;81.00
59572;DHT22;70118;45.638;11.714;2023-07-31T00:44:33;28.90;80.80
59572;DHT22;70118;45.638;11.714;2023-07-31T00:46:59;28.90;80.80
59572;DHT22;70118;45.638;11.714;2023-07-31T00:49:26;28.90;80.90
59572;DHT22;70118;45.638;11.714;2023-07-31T00:51:52;28.90;80.90
59572;DHT22;70118;45.638;11.714;2023-07-31T00:54:18;28.90;80.80
59572;DHT22;70118;45.638;11.714;2023-07-31T00:56:47;28.90;80.80
59572;DHT22;70118;45.638;11.714;2023-07-31T00:59:14;28.90;80.90
59572;DHT22;70118;45.638;11.714;2023-07-31T01:01:40;28.90;80.90
59572;DHT22;70118;45.638;11.714;2023-07-31T01:04:06;28.90;80.90
59572;DHT22;70118;45.638;11.714;2023-07-31T01:07:42;28.90;80.90
59572;DHT22;70118;45.638;11.714;2023-07-31T01:09:40;28.90;80.90
59572;DHT22;70118;45.638;11.714;2023-07-31T01:12:09;28.80;80.90
59572;DHT22;70118;45.638;11.714;2023-07-31T01:14:38;28.90;80.80
59572;DHT22;70118;45.638;11.714;2023-07-31T01:17:04;28.90;80.80
59572;DHT22;70118;45.638;11.714;2023-07-31T01:19:30;28.90;80.80
59572;DHT22;70118;45.638;11.714;2023-07-31T01:27:31;28.90;81.00
59572;DHT22;70118;45.638;11.714;2023-07-31T01:30:13;28.90;80.90
59572;DHT22;70118;45.638;11.714;2023-07-31T01:32:43;28.90;81.00
59572;DHT22;70118;45.638;11.714;2023-07-31T01:35:12;28.90;81.10
59572;DHT22;70118;45.638;11.714;2023-07-31T01:37:38;28.80;81.10
59572;DHT22;70118;45.638;11.714;2023-07-31T01:40:04;28.90;81.00
59572;DHT22;70118;45.638;11.714;2023-07-31T01:42:30;28.80;81.10
59572;DHT22;70118;45.638;11.714;2023-07-31T01:44:56;28.80;81.00
59572;DHT22;70118;45.638;11.714;2023-07-31T01:47:22;28.80;81.00
59572;DHT22;70118;45.638;11.714;2023-07-31T01:49:49;28.90;80.80
59572;DHT22;70118;45.638;11.714;2023-07-31T01:52:15;28.80;81.00
59572;DHT22;70118;45.638;11.714;2023-07-31T01:54:40;28.80;81.00
59572;DHT22;70118;45.638;11.714;2023-07-31T01:57:06;28.90;81.10
59572;DHT22;70118;45.638;11.714;2023-07-31T01:59:32;28.80;80.90
59572;DHT22;70118;45.638;11.714;2023-07-31T02:01:58;28.80;80.90
59572;DHT22;70118;45.638;11.714;2023-07-31T02:04:24;28.80;80.90
59572;DHT22;70118;45.638;11.714;2023-07-31T02:06:50;28.90;80.90
59572;DHT22;70118;45.638;11.714;2023-07-31T02:09:16;28.80;81.00
59572;DHT22;70118;45.638;11.714;2023-07-31T02:11:41;28.90;80.90
59572;DHT22;70118;45.638;11.714;2023-07-31T02:14:07;28.80;81.00
59572;DHT22;70118;45.638;11.714;2023-07-31T02:16:33;28.80;81.00
59572;DHT22;70118;45.638;11.714;2023-07-31T02:18:59;28.90;81.00
59572;DHT22;70118;45.638;11.714;2023-07-31T02:21:25;28.80;80.90
59572;DHT22;70118;45.638;11.714;2023-07-31T02:23:51;28.80;80.90
59572;DHT22;70118;45.638;11.714;2023-07-31T02:26:16;28.70;80.90
59572;DHT22;70118;45.638;11.714;2023-07-31T02:28:42;28.80;80.80
59572;DHT22;70118;45.638;11.714;2023-07-31T02:31:08;28.70;80.80
59572;DHT22;70118;45.638;11.714;2023-07-31T02:33:34;28.80;80.90
59572;DHT22;70118;45.638;11.714;2023-07-31T02:36:00;28.80;80.80
59572;DHT22;70118;45.638;11.714;2023-07-31T02:38:26;28.80;80.70
59572;DHT22;70118;45.638;11.714;2023-07-31T02:40:52;28.80;80.70
59572;DHT22;70118;45.638;11.714;2023-07-31T02:43:18;28.90;80.70
59572;DHT22;70118;45.638;11.714;2023-07-31T02:45:44;28.80;80.60
59572;DHT22;70118;45.638;11.714;2023-07-31T02:48:10;28.80;80.60
59572;DHT22;70118;45.638;11.714;2023-07-31T02:50:35;28.80;80.60
59572;DHT22;70118;45.638;11.714;2023-07-31T02:53:01;28.80;80.60
59572;DHT22;70118;45.638;11.714;2023-07-31T02:55:27;28.80;80.50
59572;DHT22;70118;45.638;11.714;2023-07-31T02:57:53;28.80;80.50
59572;DHT22;70118;45.638;11.714;2023-07-31T03:00:19;28.70;80.40
59572;DHT22;70118;45.638;11.714;2023-07-31T03:02:45;28.80;80.30
59572;DHT22;70118;45.638;11.714;2023-07-31T03:05:11;28.80;80.50
59572;DHT22;70118;45.638;11.714;2023-07-31T03:07:36;28.70;80.40
59572;DHT22;70118;45.638;11.714;2023-07-31T03:10:02;28.80;80.30
59572;DHT22;70118;45.638;11.714;2023-07-31T03:12:29;28.70;80.40
59572;DHT22;70118;45.638;11.714;2023-07-31T03:14:55;28.80;80.30
59572;DHT22;70118;45.638;11.714;2023-07-31T03:17:21;28.70;80.30
59572;DHT22;70118;45.638;11.714;2023-07-31T03:19:47;28.80;80.30
59572;DHT22;70118;45.638;11.714;2023-07-31T03:22:12;28.80;80.20
59572;DHT22;70118;45.638;11.714;2023-07-31T03:24:38;28.70;80.20
59572;DHT22;70118;45.638;11.714;2023-07-31T03:27:04;28.80;80.30
59572;DHT22;70118;45.638;11.714;2023-07-31T03:29:30;28.80;80.40
59572;DHT22;70118;45.638;11.714;2023-07-31T03:31:56;28.80;80.30
59572;DHT22;70118;45.638;11.714;2023-07-31T03:34:22;28.70;80.40
59572;DHT22;70118;45.638;11.714;2023-07-31T03:36:48;28.70;80.40
59572;DHT22;70118;45.638;11.714;2023-07-31T03:39:14;28.70;80.30
59572;DHT22;70118;45.638;11.714;2023-07-31T03:41:40;28.80;80.40
59572;DHT22;70118;45.638;11.714;2023-07-31T03:44:06;28.70;80.30
59572;DHT22;70118;45.638;11.714;2023-07-31T03:46:31;28.70;80.40
59572;DHT22;70118;45.638;11.714;2023-07-31T03:48:57;28.80;80.40
59572;DHT22;70118;45.638;11.714;2023-07-31T03:51:23;28.70;80.30
59572;DHT22;70118;45.638;11.714;2023-07-31T03:53:49;28.70;80.30
59572;DHT22;70118;45.638;11.714;2023-07-31T03:56:15;28.70;80.30
59572;DHT22;70118;45.638;11.714;2023-07-31T03:58:41;28.70;80.30
59572;DHT22;70118;45.638;11.714;2023-07-31T04:01:06;28.70;80.10
59572;DHT22;70118;45.638;11.714;2023-07-31T04:03:32;28.70;80.30
59572;DHT22;70118;45.638;11.714;2023-07-31T04:05:58;28.70;80.30
59572;DHT22;70118;45.638;11.714;2023-07-31T04:08:24;28.70;80.30
59572;DHT22;70118;45.638;11.714;2023-07-31T04:10:50;28.70;80.30
59572;DHT22;70118;45.638;11.714;2023-07-31T04:13:16;28.60;80.50
59572;DHT22;70118;45.638;11.714;2023-07-31T04:15:42;28.60;80.30
59572;DHT22;70118;45.638;11.714;2023-07-31T04:18:08;28.70;80.40
59572;DHT22;70118;45.638;11.714;2023-07-31T04:20:34;28.60;80.50
59572;DHT22;70118;45.638;11.714;2023-07-31T04:23:00;28.60;80.40
59572;DHT22;70118;45.638;11.714;2023-07-31T04:25:26;28.60;80.60
59572;DHT22;70118;45.638;11.714;2023-07-31T04:27:51;28.70;80.50
59572;DHT22;70118;45.638;11.714;2023-07-31T04:30:17;28.60;80.40
59572;DHT22;70118;45.638;11.714;2023-07-31T04:32:43;28.70;80.40
59572;DHT22;70118;45.638;11.714;2023-07-31T04:35:09;28.60;80.60
59572;DHT22;70118;45.638;11.714;2023-07-31T04:37:35;28.70;80.50
59572;DHT22;70118;45.638;11.714;2023-07-31T04:40:00;28.60;80.50
59572;DHT22;70118;45.638;11.714;2023-07-31T04:42:26;28.60;80.50
59572;DHT22;70118;45.638;11.714;2023-07-31T04:44:52;28.70;80.50
59572;DHT22;70118;45.638;11.714;2023-07-31T04:47:19;28.70;80.40
59572;DHT22;70118;45.638;11.714;2023-07-31T04:49:45;28.60;80.50
59572;DHT22;70118;45.638;11.714;2023-07-31T04:52:10;28.70;80.50
59572;DHT22;70118;45.638;11.714;2023-07-31T04:54:36;28.70;80.30
59572;DHT22;70118;45.638;11.714;2023-07-31T04:57:02;28.70;80.30
59572;DHT22;70118;45.638;11.714;2023-07-31T04:59:32;28.70;80.20
59572;DHT22;70118;45.638;11.714;2023-07-31T05:01:59;28.70;80.20
59572;DHT22;70118;45.638;11.714;2023-07-31T05:04:25;28.70;80.20
59572;DHT22;70118;45.638;11.714;2023-07-31T05:06:51;28.70;80.20
59572;DHT22;70118;45.638;11.714;2023-07-31T05:09:17;28.70;80.20
59572;DHT22;70118;45.638;11.714;2023-07-31T05:11:44;28.80;80.10
59572;DHT22;70118;45.638;11.714;2023-07-31T05:14:09;28.70;80.10
59572;DHT22;70118;45.638;11.714;2023-07-31T05:16:35;28.80;80.00
59572;DHT22;70118;45.638;11.714;2023-07-31T05:19:02;28.70;80.20
59572;DHT22;70118;45.638;11.714;2023-07-31T05:21:30;28.60;80.30
59572;DHT22;70118;45.638;11.714;2023-07-31T05:23:56;28.50;80.50
59572;DHT22;70118;45.638;11.714;2023-07-31T05:26:22;28.30;80.90
59572;DHT22;70118;45.638;11.714;2023-07-31T05:28:48;28.10;81.30
59572;DHT22;70118;45.638;11.714;2023-07-31T05:31:17;28.00;81.70
59572;DHT22;70118;45.638;11.714;2023-07-31T05:33:49;27.90;81.90
59572;DHT22;70118;45.638;11.714;2023-07-31T05:36:17;27.90;82.50
59572;DHT22;70118;45.638;11.714;2023-07-31T05:38:43;27.90;82.40
59572;DHT22;70118;45.638;11.714;2023-07-31T05:41:13;28.00;82.40
59572;DHT22;70118;45.638;11.714;2023-07-31T05:43:39;28.10;82.40
59572;DHT22;70118;45.638;11.714;2023-07-31T05:46:04;28.20;82.10
59572;DHT22;70118;45.638;11.714;2023-07-31T05:48:32;28.20;82.40
59572;DHT22;70118;45.638;11.714;2023-07-31T05:50:59;28.30;82.50
59572;DHT22;70118;45.638;11.714;2023-07-31T05:53:26;28.40;82.30
59572;DHT22;70118;45.638;11.714;2023-07-31T05:55:59;28.40;82.20
59572;DHT22;70118;45.638;11.714;2023-07-31T05:58:37;28.50;82.10
59572;DHT22;70118;45.638;11.714;2023-07-31T06:01:07;28.50;81.60
59572;DHT22;70118;45.638;11.714;2023-07-31T06:03:42;28.50;81.70
59572;DHT22;70118;45.638;11.714;2023-07-31T06:06:28;28.60;81.30
59572;DHT22;70118;45.638;11.714;2023-07-31T06:08:56;28.60;81.10
59572;DHT22;70118;45.638;11.714;2023-07-31T06:11:25;28.70;81.10
59572;DHT22;70118;45.638;11.714;2023-07-31T06:13:54;28.70;81.20
59572;DHT22;70118;45.638;11.714;2023-07-31T06:16:27;28.70;81.30
59572;DHT22;70118;45.638;11.714;2023-07-31T06:19:02;28.80;81.60
59572;DHT22;70118;45.638;11.714;2023-07-31T06:21:35;28.80;81.40
59572;DHT22;70118;45.638;11.714;2023-07-31T06:24:16;28.80;81.30
59572;DHT22;70118;45.638;11.714;2023-07-31T06:26:47;28.80;81.30
59572;DHT22;70118;45.638;11.714;2023-07-31T06:29:18;28.70;81.10
59572;DHT22;70118;45.638;11.714;2023-07-31T06:31:51;28.80;80.90
59572;DHT22;70118;45.638;11.714;2023-07-31T06:34:22;28.80;80.90
59572;DHT22;70118;45.638;11.714;2023-07-31T06:36:52;28.90;80.90
59572;DHT22;70118;45.638;11.714;2023-07-31T06:39:22;28.90;81.10
59572;DHT22;70118;45.638;11.714;2023-07-31T06:41:55;28.90;81.10
59572;DHT22;70118;45.638;11.714;2023-07-31T06:44:23;28.80;80.80
59572;DHT22;70118;45.638;11.714;2023-07-31T06:46:53;28.90;80.80
59572;DHT22;70118;45.638;11.714;2023-07-31T06:49:36;28.90;81.00
59572;DHT22;70118;45.638;11.714;2023-07-31T06:52:18;28.80;80.80
59572;DHT22;70118;45.638;11.714;2023-07-31T06:57:16;29.00;80.90
59572;DHT22;70118;45.638;11.714;2023-07-31T06:59:50;29.00;80.70
59572;DHT22;70118;45.638;11.714;2023-07-31T07:02:24;28.90;80.50
59572;DHT22;70118;45.638;11.714;2023-07-31T07:05:02;28.90;80.70
59572;DHT22;70118;45.638;11.714;2023-07-31T07:07:30;28.90;80.70
59572;DHT22;70118;45.638;11.714;2023-07-31T07:09:59;28.90;80.60
59572;DHT22;70118;45.638;11.714;2023-07-31T07:12:32;28.90;80.50
59572;DHT22;70118;45.638;11.714;2023-07-31T07:15:07;28.90;80.40
59572;DHT22;70118;45.638;11.714;2023-07-31T07:17:40;28.90;80.30
59572;DHT22;70118;45.638;11.714;2023-07-31T07:20:13;29.00;80.40
59572;DHT22;70118;45.638;11.714;2023-07-31T07:22:44;29.00;80.40
59572;DHT22;70118;45.638;11.714;2023-07-31T07:25:11;28.90;80.40
59572;DHT22;70118;45.638;11.714;2023-07-31T07:27:39;29.00;80.20
59572;DHT22;70118;45.638;11.714;2023-07-31T07:30:07;29.00;80.30
59572;DHT22;70118;45.638;11.714;2023-07-31T07:32:34;29.00;80.10
59572;DHT22;70118;45.638;11.714;2023-07-31T07:35:01;29.00;80.10
59572;DHT22;70118;45.638;11.714;2023-07-31T07:37:27;29.10;80.10
59572;DHT22;70118;45.638;11.714;2023-07-31T07:39:53;29.10;80.10
59572;DHT22;70118;45.638;11.714;2023-07-31T07:42:19;29.00;80.10
59572;DHT22;70118;45.638;11.714;2023-07-31T07:44:45;29.00;79.90
59572;DHT22;70118;45.638;11.714;2023-07-31T07:47:12;29.00;80.00
59572;DHT22;70118;45.638;11.714;2023-07-31T07:49:38;29.00;79.90
59572;DHT22;70118;45.638;11.714;2023-07-31T07:52:05;29.00;80.00
59572;DHT22;70118;45.638;11.714;2023-07-31T07:54:31;29.10;79.80
59572;DHT22;70118;45.638;11.714;2023-07-31T07:56:57;29.10;79.70
59572;DHT22;70118;45.638;11.714;2023-07-31T07:59:23;29.10;79.90
59572;DHT22;70118;45.638;11.714;2023-07-31T08:01:49;29.10;80.40
59572;DHT22;70118;45.638;11.714;2023-07-31T08:04:16;29.00;79.80
59572;DHT22;70118;45.638;11.714;2023-07-31T08:06:43;29.10;80.30
59572;DHT22;70118;45.638;11.714;2023-07-31T08:09:14;29.10;79.70
59572;DHT22;70118;45.638;11.714;2023-07-31T08:11:40;29.10;80.20
59572;DHT22;70118;45.638;11.714;2023-07-31T08:14:09;29.00;79.70
59572;DHT22;70118;45.638;11.714;2023-07-31T08:16:41;29.10;79.70
59572;DHT22;70118;45.638;11.714;2023-07-31T08:19:07;29.10;79.70
59572;DHT22;70118;45.638;11.714;2023-07-31T08:21:33;29.10;80.30
59572;DHT22;70118;45.638;11.714;2023-07-31T08:23:59;29.20;80.20
59572;DHT22;70118;45.638;11.714;2023-07-31T08:26:24;29.10;79.60
59572;DHT22;70118;45.638;11.714;2023-07-31T08:28:50;29.20;80.20
59572;DHT22;70118;45.638;11.714;2023-07-31T08:31:16;29.20;80.10
59572;DHT22;70118;45.638;11.714;2023-07-31T08:33:43;29.10;80.20
59572;DHT22;70118;45.638;11.714;2023-07-31T08:36:09;29.10;80.20
59572;DHT22;70118;45.638;11.714;2023-07-31T08:38:35;29.10;80.20
59572;DHT22;70118;45.638;11.714;2023-07-31T08:41:03;29.20;80.20
59572;DHT22;70118;45.638;11.714;2023-07-31T08:43:30;29.20;80.20
59572;DHT22;70118;45.638;11.714;2023-07-31T08:45:56;29.10;80.00
59572;DHT22;70118;45.638;11.714;2023-07-31T08:48:23;29.00;79.10
59572;DHT22;70118;45.638;11.714;2023-07-31T08:50:51;29.10;79.10
59572;DHT22;70118;45.638;11.714;2023-07-31T08:53:17;29.00;78.80
59572;DHT22;70118;45.638;11.714;2023-07-31T08:55:44;29.00;78.80
59572;DHT22;70118;45.638;11.714;2023-07-31T08:58:13;28.90;78.50
59572;DHT22;70118;45.638;11.714;2023-07-31T09:00:40;28.90;78.50
59572;DHT22;70118;45.638;11.714;2023-07-31T09:03:14;28.90;78.50
59572;DHT22;70118;45.638;11.714;2023-07-31T09:05:43;28.90;78.40
59572;DHT22;70118;45.638;11.714;2023-07-31T09:08:09;28.90;78.20
59572;DHT22;70118;45.638;11.714;2023-07-31T09:10:43;28.90;78.30
59572;DHT22;70118;45.638;11.714;2023-07-31T09:13:09;28.90;78.10
59572;DHT22;70118;45.638;11.714;2023-07-31T09:15:36;28.90;78.20
59572;DHT22;70118;45.638;11.714;2023-07-31T09:18:04;28.90;78.20
59572;DHT22;70118;45.638;11.714;2023-07-31T09:20:31;28.80;78.20
59572;DHT22;70118;45.638;11.714;2023-07-31T09:23:09;28.80;78.00
59572;DHT22;70118;45.638;11.714;2023-07-31T09:25:35;28.90;77.90
59572;DHT22;70118;45.638;11.714;2023-07-31T09:28:04;28.80;78.00
59572;DHT22;70118;45.638;11.714;2023-07-31T09:30:30;28.80;77.80
59572;DHT22;70118;45.638;11.714;2023-07-31T09:33:05;28.80;77.70
59572;DHT22;70118;45.638;11.714;2023-07-31T09:35:34;28.70;77.60
59572;DHT22;70118;45.638;11.714;2023-07-31T09:38:09;28.80;77.80
59572;DHT22;70118;45.638;11.714;2023-07-31T09:40:38;28.70;77.50
59572;DHT22;70118;45.638;11.714;2023-07-31T09:43:05;28.70;77.50
59572;DHT22;70118;45.638;11.714;2023-07-31T09:45:34;28.70;77.60
59572;DHT22;70118;45.638;11.714;2023-07-31T09:48:01;28.70;77.40
59572;DHT22;70118;45.638;11.714;2023-07-31T09:50:28;28.70;77.60
59572;DHT22;70118;45.638;11.714;2023-07-31T09:52:55;28.70;77.50
59572;DHT22;70118;45.638;11.714;2023-07-31T09:55:21;28.70;77.60
59572;DHT22;70118;45.638;11.714;2023-07-31T09:57:48;28.70;77.60
59572;DHT22;70118;45.638;11.714;2023-07-31T10:00:17;28.70;77.60
59572;DHT22;70118;45.638;11.714;2023-07-31T10:02:47;28.60;77.60
59572;DHT22;70118;45.638;11.714;2023-07-31T10:05:17;28.70;77.50
59572;DHT22;70118;45.638;11.714;2023-07-31T10:07:51;28.60;77.50
59572;DHT22;70118;45.638;11.714;2023-07-31T10:10:19;28.60;77.60
59572;DHT22;70118;45.638;11.714;2023-07-31T10:12:46;28.60;77.60
59572;DHT22;70118;45.638;11.714;2023-07-31T10:15:15;28.60;77.50
59572;DHT22;70118;45.638;11.714;2023-07-31T10:17:41;28.60;77.50
59572;DHT22;70118;45.638;11.714;2023-07-31T10:20:07;28.60;77.40
59572;DHT22;70118;45.638;11.714;2023-07-31T10:22:34;28.60;77.50
59572;DHT22;70118;45.638;11.714;2023-07-31T10:25:01;28.70;77.50
59572;DHT22;70118;45.638;11.714;2023-07-31T10:27:27;28.60;77.40
59572;DHT22;70118;45.638;11.714;2023-07-31T10:29:57;28.60;77.30
59572;DHT22;70118;45.638;11.714;2023-07-31T10:32:25;28.60;77.30
59572;DHT22;70118;45.638;11.714;2023-07-31T10:34:52;28.60;77.40
59572;DHT22;70118;45.638;11.714;2023-07-31T10:37:24;28.60;77.40
59572;DHT22;70118;45.638;11.714;2023-07-31T10:40:01;28.60;77.40
59572;DHT22;70118;45.638;11.714;2023-07-31T10:42:36;28.60;77.40
59572;DHT22;70118;45.638;11.714;2023-07-31T10:45:05;28.60;77.20
59572;DHT22;70118;45.638;11.714;2023-07-31T10:47:44;28.70;77.30
59572;DHT22;70118;45.638;11.714;2023-07-31T10:50:21;28.60;77.10
59572;DHT22;70118;45.638;11.714;2023-07-31T10:52:52;28.60;77.10
59572;DHT22;70118;45.638;11.714;2023-07-31T10:55:25;28.60;77.40
59572;DHT22;70118;45.638;11.714;2023-07-31T10:57:52;28.60;77.20
59572;DHT22;70118;45.638;11.714;2023-07-31T11:00:22;28.60;77.40
59572;DHT22;70118;45.638;11.714;2023-07-31T11:02:58;28.60;77.40
59572;DHT22;70118;45.638;11.714;2023-07-31T11:05:50;28.70;77.60
59572;DHT22;70118;45.638;11.714;2023-07-31T11:08:32;28.60;77.90
59572;DHT22;70118;45.638;11.714;2023-07-31T11:13:32;28.70;78.10
59572;DHT22;70118;45.638;11.714;2023-07-31T11:15:59;28.60;78.10
59572;DHT22;70118;45.638;11.714;2023-07-31T11:18:26;28.60;78.30
59572;DHT22;70118;45.638;11.714;2023-07-31T11:20:53;28.70;78.50
59572;DHT22;70118;45.638;11.714;2023-07-31T11:23:20;28.60;78.60
59572;DHT22;70118;45.638;11.714;2023-07-31T11:25:46;28.60;78.60
59572;DHT22;70118;45.638;11.714;2023-07-31T11:28:13;28.60;78.80
59572;DHT22;70118;45.638;11.714;2023-07-31T11:30:41;28.70;78.70
59572;DHT22;70118;45.638;11.714;2023-07-31T11:33:08;28.60;78.70
59572;DHT22;70118;45.638;11.714;2023-07-31T11:35:47;28.70;78.90
59572;DHT22;70118;45.638;11.714;2023-07-31T11:38:33;28.60;79.00
59572;DHT22;70118;45.638;11.714;2023-07-31T11:41:03;28.60;78.90
59572;DHT22;70118;45.638;11.714;2023-07-31T11:43:31;28.60;79.00
59572;DHT22;70118;45.638;11.714;2023-07-31T11:46:01;28.70;78.80
59572;DHT22;70118;45.638;11.714;2023-07-31T11:48:34;28.60;78.80
59572;DHT22;70118;45.638;11.714;2023-07-31T11:51:05;28.60;78.90
59572;DHT22;70118;45.638;11.714;2023-07-31T11:53:38;28.60;78.60
59572;DHT22;70118;45.638;11.714;2023-07-31T11:56:07;28.60;78.60
59572;DHT22;70118;45.638;11.714;2023-07-31T11:58:35;28.60;78.50
59572;DHT22;70118;45.638;11.714;2023-07-31T12:01:02;28.50;78.60
59572;DHT22;70118;45.638;11.714;2023-07-31T12:03:28;28.70;78.40
59572;DHT22;70118;45.638;11.714;2023-07-31T12:05:56;28.60;78.30
59572;DHT22;70118;45.638;11.714;2023-07-31T12:08:24;28.60;78.30
59572;DHT22;70118;45.638;11.714;2023-07-31T12:10:52;28.60;78.20
59572;DHT22;70118;45.638;11.714;2023-07-31T12:13:23;28.60;78.10
59572;DHT22;70118;45.638;11.714;2023-07-31T12:15:56;28.60;78.10
59572;DHT22;70118;45.638;11.714;2023-07-31T12:18:29;28.60;78.10
59572;DHT22;70118;45.638;11.714;2023-07-31T12:21:01;28.50;78.10
59572;DHT22;70118;45.638;11.714;2023-07-31T12:23:35;28.60;78.00
59572;DHT22;70118;45.638;11.714;2023-07-31T12:26:16;28.60;77.90
59572;DHT22;70118;45.638;11.714;2023-07-31T12:28:47;28.50;77.80
59572;DHT22;70118;45.638;11.714;2023-07-31T12:31:19;28.50;77.80
59572;DHT22;70118;45.638;11.714;2023-07-31T12:33:47;28.60;77.70
59572;DHT22;70118;45.638;11.714;2023-07-31T12:36:20;28.60;77.80
59572;DHT22;70118;45.638;11.714;2023-07-31T12:38:46;28.60;77.70
59572;DHT22;70118;45.638;11.714;2023-07-31T12:41:13;28.50;77.70
59572;DHT22;70118;45.638;11.714;2023-07-31T12:43:41;28.60;77.60
59572;DHT22;70118;45.638;11.714;2023-07-31T12:46:07;28.50;77.60
59572;DHT22;70118;45.638;11.714;2023-07-31T12:48:34;28.50;77.60
59572;DHT22;70118;45.638;11.714;2023-07-31T12:51:00;28.50;77.50
59572;DHT22;70118;45.638;11.714;2023-07-31T12:53:28;28.50;77.40
59572;DHT22;70118;45.638;11.714;2023-07-31T12:55:58;28.50;77.60
59572;DHT22;70118;45.638;11.714;2023-07-31T12:58:25;28.60;77.30
59572;DHT22;70118;45.638;11.714;2023-07-31T13:00:52;28.50;77.40
59572;DHT22;70118;45.638;11.714;2023-07-31T13:03:23;28.60;77.40
59572;DHT22;70118;45.638;11.714;2023-07-31T13:05:52;28.50;77.40
59572;DHT22;70118;45.638;11.714;2023-07-31T13:08:18;28.60;77.40
59572;DHT22;70118;45.638;11.714;2023-07-31T13:10:45;28.50;77.30
59572;DHT22;70118;45.638;11.714;2023-07-31T13:13:12;28.50;77.10
59572;DHT22;70118;45.638;11.714;2023-07-31T13:15:38;28.50;77.20
59572;DHT22;70118;45.638;11.714;2023-07-31T13:18:04;28.50;77.40
59572;DHT22;70118;45.638;11.714;2023-07-31T13:20:30;28.50;77.20
59572;DHT22;70118;45.638;11.714;2023-07-31T13:22:55;28.50;77.10
59572;DHT22;70118;45.638;11.714;2023-07-31T13:25:21;28.50;77.20
59572;DHT22;70118;45.638;11.714;2023-07-31T13:27:47;28.50;77.10
59572;DHT22;70118;45.638;11.714;2023-07-31T13:30:13;28.40;77.00
59572;DHT22;70118;45.638;11.714;2023-07-31T13:32:39;28.60;77.00
59572;DHT22;70118;45.638;11.714;2023-07-31T13:35:06;28.50;77.00
59572;DHT22;70118;45.638;11.714;2023-07-31T13:37:32;28.40;76.90
59572;DHT22;70118;45.638;11.714;2023-07-31T13:39:58;28.50;76.90
59572;DHT22;70118;45.638;11.714;2023-07-31T13:42:24;28.50;76.80
59572;DHT22;70118;45.638;11.714;2023-07-31T13:44:49;28.50;76.80
59572;DHT22;70118;45.638;11.714;2023-07-31T13:47:15;28.50;76.80
59572;DHT22;70118;45.638;11.714;2023-07-31T13:49:41;28.50;76.90
59572;DHT22;70118;45.638;11.714;2023-07-31T13:52:09;28.50;76.70
59572;DHT22;70118;45.638;11.714;2023-07-31T13:54:35;28.50;76.70
59572;DHT22;70118;45.638;11.714;2023-07-31T13:57:02;28.50;76.70
59572;DHT22;70118;45.638;11.714;2023-07-31T13:59:29;28.50;76.70
59572;DHT22;70118;45.638;11.714;2023-07-31T14:01:54;28.50;76.80
59572;DHT22;70118;45.638;11.714;2023-07-31T14:04:20;28.60;76.70
59572;DHT22;70118;45.638;11.714;2023-07-31T14:06:46;28.40;76.60
59572;DHT22;70118;45.638;11.714;2023-07-31T14:09:16;28.50;76.80
59572;DHT22;70118;45.638;11.714;2023-07-31T14:11:44;28.50;76.70
59572;DHT22;70118;45.638;11.714;2023-07-31T14:14:11;28.50;76.70
59572;DHT22;70118;45.638;11.714;2023-07-31T14:16:37;28.50;76.80
59572;DHT22;70118;45.638;11.714;2023-07-31T14:19:03;28.60;76.70
59572;DHT22;70118;45.638;11.714;2023-07-31T14:21:30;28.50;76.60
59572;DHT22;70118;45.638;11.714;2023-07-31T14:23:57;28.50;76.50
59572;DHT22;70118;45.638;11.714;2023-07-31T14:26:24;28.50;76.60
59572;DHT22;70118;45.638;11.714;2023-07-31T14:28:51;28.50;76.70
59572;DHT22;70118;45.638;11.714;2023-07-31T14:31:17;28.50;76.60
59572;DHT22;70118;45.638;11.714;2023-07-31T14:33:44;28.50;76.60
59572;DHT22;70118;45.638;11.714;2023-07-31T14:36:11;28.50;76.60
59572;DHT22;70118;45.638;11.714;2023-07-31T14:38:37;28.40;76.60
59572;DHT22;70118;45.638;11.714;2023-07-31T14:41:03;28.40;76.50
59572;DHT22;70118;45.638;11.714;2023-07-31T14:43:29;28.40;76.50
59572;DHT22;70118;45.638;11.714;2023-07-31T14:45:55;28.50;76.50
59572;DHT22;70118;45.638;11.714;2023-07-31T14:48:26;28.50;76.50
59572;DHT22;70118;45.638;11.714;2023-07-31T14:50:52;28.40;76.50
59572;DHT22;70118;45.638;11.714;2023-07-31T14:53:19;28.40;76.50
59572;DHT22;70118;45.638;11.714;2023-07-31T14:55:45;28.50;76.50
59572;DHT22;70118;45.638;11.714;2023-07-31T14:58:11;28.40;76.50
59572;DHT22;70118;45.638;11.714;2023-07-31T15:00:36;28.40;76.30
59572;DHT22;70118;45.638;11.714;2023-07-31T15:03:03;28.40;76.40
59572;DHT22;70118;45.638;11.714;2023-07-31T15:05:29;28.40;76.30
59572;DHT22;70118;45.638;11.714;2023-07-31T15:07:54;28.40;76.40
59572;DHT22;70118;45.638;11.714;2023-07-31T15:10:20;28.40;76.40
59572;DHT22;70118;45.638;11.714;2023-07-31T15:12:46;28.40;76.30
59572;DHT22;70118;45.638;11.714;2023-07-31T15:15:13;28.40;76.40
59572;DHT22;70118;45.638;11.714;2023-07-31T15:17:39;28.50;76.30
59572;DHT22;70118;45.638;11.714;2023-07-31T15:20:05;28.40;76.40
59572;DHT22;70118;45.638;11.714;2023-07-31T15:22:31;28.50;76.40
59572;DHT22;70118;45.638;11.714;2023-07-31T15:24:57;28.30;76.40
59572;DHT22;70118;45.638;11.714;2023-07-31T15:27:23;28.40;76.30
59572;DHT22;70118;45.638;11.714;2023-07-31T15:29:50;28.40;76.30